createdAt,value
2022-12-12T00:00:14.802Z,100519.22
2022-12-12T00:02:17.457Z,100512.41
2022-12-12T00:04:19.643Z,100515.97
2022-12-12T00:06:22.252Z,100511.53
2022-12-12T00:08:24.577Z,100509.72
2022-12-12T00:10:27.208Z,100507.97
2022-12-12T00:12:29.268Z,100511.38
2022-12-12T00:14:31.419Z,100505.44
2022-12-12T00:16:33.440Z,100507.97
2022-12-12T00:18:39.822Z,100510.94
2022-12-12T00:20:41.911Z,100510.53
2022-12-12T00:22:43.956Z,100514.72
2022-12-12T00:24:45.601Z,100519.88
2022-12-12T00:26:48.130Z,100521.31
2022-12-12T00:28:50.447Z,100522.91
2022-12-12T00:30:52.943Z,100517.03
2022-12-12T00:32:55.582Z,100518.75
2022-12-12T00:34:57.455Z,100524.00
2022-12-12T00:36:59.106Z,100525.63
2022-12-12T00:39:01.202Z,100528.16
2022-12-12T00:41:03.358Z,100533.22
2022-12-12T00:43:05.110Z,100534.19
2022-12-12T00:45:07.443Z,100536.38
2022-12-12T00:47:09.183Z,100538.31
2022-12-12T00:49:11.039Z,100541.63
2022-12-12T00:51:19.776Z,100534.66
2022-12-12T00:53:22.463Z,100537.84
2022-12-12T00:55:25.109Z,100543.53
2022-12-12T00:57:26.887Z,100547.03
2022-12-12T00:59:28.638Z,100542.44
2022-12-12T01:01:33.063Z,100537.84
2022-12-12T01:03:36.502Z,100534.50
2022-12-12T01:05:38.365Z,100541.19
2022-12-12T01:07:40.707Z,100527.69
2022-12-12T01:09:45.115Z,100532.84
2022-12-12T01:11:46.782Z,100529.44
2022-12-12T01:13:51.632Z,100537.59
2022-12-12T01:15:53.413Z,100538.63
2022-12-12T01:17:55.168Z,100539.25
2022-12-12T01:19:56.800Z,100550.53
2022-12-12T01:21:58.557Z,100545.47
2022-12-12T01:24:01.595Z,100551.34
2022-12-12T01:26:08.124Z,100545.28
2022-12-12T01:28:10.377Z,100551.34
2022-12-12T01:30:14.774Z,100552.75
2022-12-12T01:32:16.424Z,100556.16
2022-12-12T01:34:18.079Z,100556.47
2022-12-12T01:36:22.152Z,100559.34
2022-12-12T01:38:24.768Z,100563.72
2022-12-12T01:40:29.879Z,100567.19
2022-12-12T01:42:31.773Z,100566.16
2022-12-12T01:44:40.987Z,100561.25
2022-12-12T01:46:45.666Z,100562.25
2022-12-12T01:48:54.952Z,100569.72
2022-12-12T01:50:59.760Z,100568.06
2022-12-12T01:53:01.596Z,100571.47
2022-12-12T01:55:06.249Z,100576.22
2022-12-12T01:57:12.912Z,100570.13
2022-12-12T01:59:17.793Z,100581.31
2022-12-12T02:01:21.391Z,100581.56
2022-12-12T02:03:23.267Z,100577.50
2022-12-12T02:05:31.122Z,100584.63
2022-12-12T02:07:32.823Z,100581.09
2022-12-12T02:09:44.305Z,100578.69
2022-12-12T02:11:51.218Z,100582.56
2022-12-12T02:13:52.924Z,100585.84
2022-12-12T02:16:27.511Z,100586.69
2022-12-12T02:19:07.843Z,100592.97
2022-12-12T02:21:15.622Z,100596.25
2022-12-12T02:23:43.286Z,100602.19
2022-12-12T02:26:27.151Z,100607.56
2022-12-12T02:28:53.418Z,100611.16
2022-12-12T02:31:12.748Z,100610.19
2022-12-12T02:33:26.116Z,100602.47
2022-12-12T02:35:59.507Z,100600.81
2022-12-12T02:38:16.101Z,100602.66
2022-12-12T02:40:59.640Z,100605.19
2022-12-12T02:43:07.132Z,100609.31
2022-12-12T02:45:23.407Z,100601.00
2022-12-12T02:47:43.097Z,100600.03
2022-12-12T02:49:54.297Z,100589.97
2022-12-12T02:51:57.787Z,100590.91
2022-12-12T02:54:00.259Z,100588.28
2022-12-12T02:56:05.903Z,100590.66
2022-12-12T02:58:07.681Z,100592.41
2022-12-12T03:00:15.826Z,100597.81
2022-12-12T03:02:38.710Z,100604.47
2022-12-12T03:05:27.370Z,100601.94
2022-12-12T03:08:04.521Z,100596.22
2022-12-12T03:10:44.575Z,100599.78
2022-12-12T03:12:49.223Z,100592.06
2022-12-12T03:15:13.217Z,100591.94
2022-12-12T03:17:39.526Z,100592.72
2022-12-12T03:20:02.530Z,100580.03
2022-12-12T03:22:30.706Z,100585.25
2022-12-12T03:24:51.368Z,100590.25
2022-12-12T03:27:05.350Z,100594.06
2022-12-12T03:29:14.591Z,100601.00
2022-12-12T03:31:20.683Z,100607.75
2022-12-12T03:33:40.814Z,100602.66
2022-12-12T03:35:54.171Z,100596.72
2022-12-12T03:38:06.658Z,100595.13
2022-12-12T03:40:13.289Z,100594.41
2022-12-12T03:42:24.506Z,100603.75
2022-12-12T03:44:41.160Z,100600.19
2022-12-12T03:46:55.262Z,100606.94
2022-12-12T03:49:13.625Z,100610.09
2022-12-12T03:51:21.650Z,100610.50
2022-12-12T03:53:36.639Z,100613.91
2022-12-12T03:55:48.526Z,100607.09
2022-12-12T03:57:55.000Z,100612.25
2022-12-12T04:00:06.757Z,100607.81
2022-12-12T04:02:22.061Z,100602.75
2022-12-12T04:04:38.468Z,100604.47
2022-12-12T04:07:05.078Z,100601.78
2022-12-12T04:09:42.930Z,100610.34
2022-12-12T04:12:22.199Z,100610.50
2022-12-12T04:14:49.664Z,100612.09
2022-12-12T04:17:00.797Z,100618.91
2022-12-12T04:19:47.822Z,100623.19
2022-12-12T04:22:17.903Z,100615.44
2022-12-12T04:24:50.187Z,100617.31
2022-12-12T04:27:07.050Z,100618.34
2022-12-12T04:29:36.428Z,100614.06
2022-12-12T04:31:45.221Z,100619.78
2022-12-12T04:33:51.675Z,100624.88
2022-12-12T04:35:56.709Z,100625.59
2022-12-12T04:38:03.684Z,100630.66
2022-12-12T04:40:09.638Z,100630.66
2022-12-12T04:42:15.108Z,100631.53
2022-12-12T04:44:20.216Z,100630.81
2022-12-12T04:46:27.968Z,100630.66
2022-12-12T04:49:02.083Z,100633.28
2022-12-12T04:51:04.966Z,100639.09
2022-12-12T04:53:18.635Z,100631.84
2022-12-12T04:55:28.717Z,100634.63
2022-12-12T04:57:40.000Z,100632.72
2022-12-12T04:59:41.775Z,100632.88
2022-12-12T05:01:55.898Z,100638.59
2022-12-12T05:04:01.352Z,100636.03
2022-12-12T05:06:08.993Z,100636.84
2022-12-12T05:08:13.349Z,100629.47
2022-12-12T05:10:17.624Z,100630.72
2022-12-12T05:12:21.056Z,100630.97
2022-12-12T05:14:23.250Z,100635.03
2022-12-12T05:16:29.786Z,100634.16
2022-12-12T05:18:31.528Z,100637.25
2022-12-12T05:20:33.465Z,100635.56
2022-12-12T05:22:36.025Z,100636.59
2022-12-12T05:24:37.684Z,100641.66
2022-12-12T05:26:39.532Z,100639.06
2022-12-12T05:28:41.177Z,100643.34
2022-12-12T05:30:42.901Z,100644.94
2022-12-12T05:32:44.655Z,100645.91
2022-12-12T05:34:46.283Z,100645.91
2022-12-12T05:36:48.027Z,100657.00
2022-12-12T05:38:49.882Z,100647.72
2022-12-12T05:40:51.610Z,100648.56
2022-12-12T05:42:53.307Z,100651.91
2022-12-12T05:44:54.935Z,100659.31
2022-12-12T05:46:56.619Z,100651.47
2022-12-12T05:48:58.233Z,100654.13
2022-12-12T05:51:03.875Z,100655.47
2022-12-12T05:53:05.534Z,100649.22
2022-12-12T05:55:07.994Z,100653.59
2022-12-12T05:57:09.778Z,100647.94
2022-12-12T05:59:11.421Z,100651.47
2022-12-12T06:01:13.143Z,100658.44
2022-12-12T06:03:15.330Z,100655.91
2022-12-12T06:05:17.090Z,100664.53
2022-12-12T06:07:18.914Z,100672.41
2022-12-12T06:09:20.643Z,100661.53
2022-12-12T06:11:22.371Z,100674.31
2022-12-12T06:13:24.161Z,100673.22
2022-12-12T06:15:26.069Z,100671.63
2022-12-12T06:17:32.914Z,100682.72
2022-12-12T06:19:35.209Z,100680.03
2022-12-12T06:21:36.899Z,100679.22
2022-12-12T06:23:40.373Z,100678.84
2022-12-12T06:25:42.189Z,100679.63
2022-12-12T06:27:43.998Z,100683.94
2022-12-12T06:29:45.638Z,100684.00
2022-12-12T06:31:47.605Z,100691.13
2022-12-12T06:33:49.549Z,100683.59
2022-12-12T06:36:11.650Z,100679.38
2022-12-12T06:38:13.284Z,100674.47
2022-12-12T06:40:16.273Z,100670.56
2022-12-12T06:42:17.991Z,100673.03
2022-12-12T06:44:23.049Z,100671.59
2022-12-12T06:46:27.346Z,100666.78
2022-12-12T06:48:30.914Z,100672.94
2022-12-12T06:50:32.669Z,100676.50
2022-12-12T06:52:34.317Z,100670.75
2022-12-12T06:54:36.684Z,100672.41
2022-12-12T06:56:40.974Z,100667.81
2022-12-12T06:58:47.161Z,100676.78
2022-12-12T07:00:53.129Z,100668.88
2022-12-12T07:02:54.870Z,100673.97
2022-12-12T07:04:56.716Z,100672.41
2022-12-12T07:06:58.577Z,100676.84
2022-12-12T07:09:00.663Z,100681.34
2022-12-12T07:11:10.785Z,100690.31
2022-12-12T07:13:13.064Z,100690.78
2022-12-12T07:15:14.791Z,100689.06
2022-12-12T07:17:16.683Z,100688.63
2022-12-12T07:19:18.391Z,100690.63
2022-12-12T07:21:20.717Z,100697.84
2022-12-12T07:23:22.489Z,100693.47
2022-12-12T07:25:24.120Z,100697.31
2022-12-12T07:27:25.811Z,100706.03
2022-12-12T07:29:27.503Z,100699.06
2022-12-12T07:31:29.301Z,100694.84
2022-12-12T07:33:41.090Z,100698.19
2022-12-12T07:35:45.302Z,100699.13
2022-12-12T07:37:47.594Z,100697.53
2022-12-12T07:39:49.264Z,100701.03
2022-12-12T07:41:50.907Z,100698.66
2022-12-12T07:43:52.690Z,100703.91
2022-12-12T07:45:57.145Z,100703.81
2022-12-12T07:47:59.001Z,100695.88
2022-12-12T07:50:00.751Z,100704.78
2022-12-12T07:52:03.013Z,100707.47
2022-12-12T07:54:05.145Z,100706.75
2022-12-12T07:56:09.146Z,100711.28
2022-12-12T07:58:10.889Z,100705.88
2022-12-12T08:00:16.052Z,100709.44
2022-12-12T08:02:17.787Z,100718.50
2022-12-12T08:04:25.040Z,100735.09
2022-12-12T08:06:27.095Z,100736.84
2022-12-12T08:08:28.821Z,100727.06
2022-12-12T08:10:30.534Z,100736.78
2022-12-12T08:12:32.570Z,100734.59
2022-12-12T08:14:34.459Z,100734.44
2022-12-12T08:16:36.182Z,100743.81
2022-12-12T08:18:37.985Z,100744.16
2022-12-12T08:20:42.021Z,100749.47
2022-12-12T08:22:43.998Z,100747.94
2022-12-12T08:24:45.754Z,100742.44
2022-12-12T08:26:50.170Z,100752.09
2022-12-12T08:28:53.908Z,100752.09
2022-12-12T08:30:55.669Z,100762.19
2022-12-12T08:32:57.413Z,100765.25
2022-12-12T08:34:59.745Z,100760.50
2022-12-12T08:37:01.528Z,100764.41
2022-12-12T08:39:16.118Z,100761.59
2022-12-12T08:41:19.073Z,100760.91
2022-12-12T08:43:20.838Z,100760.63
2022-12-12T08:45:22.506Z,100754.75
2022-12-12T08:47:24.341Z,100746.19
2022-12-12T08:49:25.989Z,100758.94
2022-12-12T08:51:27.771Z,100760.91
2022-12-12T08:53:29.755Z,100760.72
2022-12-12T08:55:31.419Z,100758.69
2022-12-12T08:57:33.227Z,100760.41
2022-12-12T08:59:34.971Z,100764.13
2022-12-12T09:01:36.819Z,100762.47
2022-12-12T09:03:38.550Z,100758.19
2022-12-12T09:05:46.793Z,100748.56
2022-12-12T09:07:48.558Z,100748.50
2022-12-12T09:09:50.409Z,100745.84
2022-12-12T09:11:52.130Z,100758.09
2022-12-12T09:13:54.439Z,100747.34
2022-12-12T09:15:56.259Z,100756.56
2022-12-12T09:17:57.983Z,100757.06
2022-12-12T09:19:59.663Z,100758.28
2022-12-12T09:22:01.373Z,100759.59
2022-12-12T09:24:03.119Z,100758.81
2022-12-12T09:26:09.806Z,100759.25
2022-12-12T09:28:12.550Z,100754.75
2022-12-12T09:30:15.169Z,100752.94
2022-12-12T09:32:22.770Z,100753.38
2022-12-12T09:34:26.379Z,100754.53
2022-12-12T09:36:28.013Z,100749.38
2022-12-12T09:38:30.044Z,100746.91
2022-12-12T09:40:53.670Z,100746.44
2022-12-12T09:42:56.316Z,100756.28
2022-12-12T09:45:03.225Z,100754.25
2022-12-12T09:47:11.058Z,100750.59
2022-12-12T09:49:47.099Z,100757.78
2022-12-12T09:51:51.064Z,100760.06
2022-12-12T09:53:52.769Z,100759.88
2022-12-12T09:56:36.758Z,100766.38
2022-12-12T09:58:59.011Z,100770.81
2022-12-12T10:01:06.375Z,100761.09
2022-12-12T10:03:34.804Z,100759.81
2022-12-12T10:05:45.797Z,100761.47
2022-12-12T10:08:13.584Z,100757.78
2022-12-12T10:10:24.981Z,100753.75
2022-12-12T10:12:36.142Z,100755.69
2022-12-12T10:15:14.506Z,100755.13
2022-12-12T10:17:46.667Z,100764.44
2022-12-12T10:20:33.064Z,100767.31
2022-12-12T10:22:59.156Z,100760.69
2022-12-12T10:25:58.714Z,100763.56
2022-12-12T10:28:47.174Z,100758.94
2022-12-12T10:31:21.798Z,100761.81
2022-12-12T10:33:48.873Z,100760.06
2022-12-12T10:36:16.983Z,100760.84
2022-12-12T10:38:47.866Z,100765.34
2022-12-12T10:40:49.386Z,100761.38
2022-12-12T10:43:18.081Z,100759.19
2022-12-12T10:45:41.137Z,100757.50
2022-12-12T10:47:43.449Z,100752.78
2022-12-12T10:49:45.504Z,100761.78
2022-12-12T10:51:50.116Z,100754.00
2022-12-12T10:53:52.651Z,100759.59
2022-12-12T10:55:59.279Z,100759.84
2022-12-12T10:58:03.790Z,100754.81
2022-12-12T11:00:31.303Z,100757.50
2022-12-12T11:02:43.705Z,100753.75
2022-12-12T11:04:46.009Z,100759.00
2022-12-12T11:06:52.367Z,100760.75
2022-12-12T11:09:07.859Z,100753.94
2022-12-12T11:11:21.653Z,100755.53
2022-12-12T11:13:23.443Z,100748.78
2022-12-12T11:15:32.194Z,100748.94
2022-12-12T11:17:34.534Z,100752.88
2022-12-12T11:19:39.449Z,100754.00
2022-12-12T11:21:45.812Z,100741.34
2022-12-12T11:23:57.603Z,100745.44
2022-12-12T11:26:05.942Z,100742.44
2022-12-12T11:28:20.694Z,100740.41
2022-12-12T11:30:33.285Z,100734.97
2022-12-12T11:32:44.729Z,100732.00
2022-12-12T11:34:51.736Z,100735.03
2022-12-12T11:36:54.820Z,100733.28
2022-12-12T11:38:58.077Z,100729.47
2022-12-12T11:41:02.900Z,100735.47
2022-12-12T11:43:09.136Z,100732.00
2022-12-12T11:45:14.128Z,100738.06
2022-12-12T11:47:19.086Z,100739.38
2022-12-12T11:49:20.903Z,100740.88
2022-12-12T11:51:36.992Z,100741.31
2022-12-12T11:53:44.733Z,100742.78
2022-12-12T11:56:20.114Z,100736.56
2022-12-12T11:58:46.098Z,100746.63
2022-12-12T12:01:25.124Z,100746.88
2022-12-12T12:03:35.957Z,100744.97
2022-12-12T12:05:46.632Z,100745.97
2022-12-12T12:08:36.137Z,100738.34
2022-12-12T12:10:53.266Z,100745.31
2022-12-12T12:13:04.079Z,100743.13
2022-12-12T12:15:08.490Z,100741.78
2022-12-12T12:17:53.356Z,100741.78
2022-12-12T12:20:13.015Z,100738.00
2022-12-12T12:22:41.245Z,100731.84
2022-12-12T12:24:58.025Z,100740.13
2022-12-12T12:27:15.710Z,100740.41
2022-12-12T12:29:29.569Z,100728.66
2022-12-12T12:31:46.057Z,100741.06
2022-12-12T12:34:27.710Z,100734.38
2022-12-12T12:37:10.055Z,100728.50
2022-12-12T12:39:37.335Z,100722.94
2022-12-12T12:41:53.778Z,100720.09
2022-12-12T12:44:25.619Z,100718.22
2022-12-12T12:46:48.946Z,100708.38
2022-12-12T12:48:55.889Z,100709.34
2022-12-12T12:51:19.114Z,100699.84
2022-12-12T12:53:37.484Z,100701.72
2022-12-12T12:55:44.708Z,100705.75
2022-12-12T12:57:50.422Z,100703.28
2022-12-12T12:59:57.528Z,100691.81
2022-12-12T13:02:04.573Z,100695.72
2022-12-12T13:04:21.646Z,100702.84
2022-12-12T13:06:36.899Z,100702.53
2022-12-12T13:08:40.030Z,100700.91
2022-12-12T13:10:52.172Z,100701.50
2022-12-12T13:13:06.359Z,100708.94
2022-12-12T13:15:31.643Z,100701.66
2022-12-12T13:17:44.780Z,100700.41
2022-12-12T13:19:53.625Z,100698.28
2022-12-12T13:22:04.755Z,100701.66
2022-12-12T13:24:23.322Z,100702.38
2022-12-12T13:26:42.368Z,100706.81
2022-12-12T13:28:50.282Z,100686.50
2022-12-12T13:31:27.021Z,100690.72
2022-12-12T13:33:34.491Z,100693.41
2022-12-12T13:35:51.248Z,100685.78
2022-12-12T13:37:54.951Z,100685.00
2022-12-12T13:40:01.382Z,100686.97
2022-12-12T13:42:07.433Z,100691.09
2022-12-12T13:44:38.700Z,100688.25
2022-12-12T13:46:41.176Z,100679.38
2022-12-12T13:48:47.600Z,100676.66
2022-12-12T13:51:36.393Z,100680.72
2022-12-12T13:53:38.119Z,100689.63
2022-12-12T13:55:39.884Z,100690.09
2022-12-12T13:58:08.102Z,100690.13
2022-12-12T14:00:18.483Z,100690.19
2022-12-12T14:02:33.124Z,100686.44
2022-12-12T14:04:44.005Z,100686.94
2022-12-12T14:06:45.560Z,100684.84
2022-12-12T14:08:50.716Z,100695.25
2022-12-12T14:10:59.267Z,100684.56
2022-12-12T14:13:21.783Z,100689.84
2022-12-12T14:15:31.919Z,100689.41
2022-12-12T14:17:42.289Z,100685.19
2022-12-12T14:19:46.470Z,100684.31
2022-12-12T14:21:50.466Z,100686.16
2022-12-12T14:23:53.634Z,100670.47
2022-12-12T14:25:56.161Z,100664.72
2022-12-12T14:28:18.761Z,100673.44
2022-12-12T14:30:31.500Z,100671.91
2022-12-12T14:32:42.045Z,100676.50
2022-12-12T14:35:20.746Z,100681.44
2022-12-12T14:37:32.848Z,100677.78
2022-12-12T14:39:46.617Z,100679.78
2022-12-12T14:41:49.067Z,100684.78
2022-12-12T14:44:35.212Z,100687.41
2022-12-12T14:46:19.176Z,100685.50
2022-12-12T14:48:28.749Z,100689.44
2022-12-12T14:50:30.476Z,100683.97
2022-12-12T14:52:32.142Z,100680.75
2022-12-12T14:54:33.894Z,100682.88
2022-12-12T14:56:41.546Z,100672.63
2022-12-12T14:58:56.383Z,100671.69
2022-12-12T15:01:03.813Z,100679.53
2022-12-12T15:03:06.555Z,100679.13
2022-12-12T15:05:08.727Z,100679.13
2022-12-12T15:07:28.482Z,100679.84
2022-12-12T15:09:38.920Z,100679.84
2022-12-12T15:11:45.859Z,100691.03
2022-12-12T15:13:55.959Z,100685.19
2022-12-12T15:15:57.719Z,100695.09
2022-12-12T15:18:01.298Z,100695.34
2022-12-12T15:20:07.178Z,100689.28
2022-12-12T15:22:23.762Z,100696.28
2022-12-12T15:24:29.686Z,100696.84
2022-12-12T15:26:31.579Z,100697.38
2022-12-12T15:28:33.472Z,100697.38
2022-12-12T15:30:39.813Z,100699.38
2022-12-12T15:32:47.241Z,100706.81
2022-12-12T15:35:01.681Z,100707.16
2022-12-12T15:37:21.701Z,100706.69
2022-12-12T15:39:23.457Z,100710.25
2022-12-12T15:41:25.521Z,100706.59
2022-12-12T15:43:29.797Z,100711.56
2022-12-12T15:45:37.729Z,100713.50
2022-12-12T15:47:39.404Z,100713.34
2022-12-12T15:49:44.031Z,100716.97
2022-12-12T15:51:46.313Z,100718.00
2022-12-12T15:53:51.925Z,100720.78
2022-12-12T15:55:57.741Z,100719.75
2022-12-12T15:58:00.190Z,100720.78
2022-12-12T16:00:10.102Z,100723.41
2022-12-12T16:02:21.771Z,100727.00
2022-12-12T16:04:26.292Z,100725.56
2022-12-12T16:06:33.003Z,100729.22
2022-12-12T16:08:38.224Z,100732.25
2022-12-12T16:10:53.309Z,100726.44
2022-12-12T16:13:01.327Z,100729.47
2022-12-12T16:15:14.964Z,100729.69
2022-12-12T16:17:20.000Z,100730.03
2022-12-12T16:19:25.725Z,100721.84
2022-12-12T16:21:28.725Z,100728.81
2022-12-12T16:23:33.645Z,100733.19
2022-12-12T16:25:37.035Z,100729.84
2022-12-12T16:27:39.447Z,100730.56
2022-12-12T16:29:41.606Z,100723.59
2022-12-12T16:31:50.348Z,100724.84
2022-12-12T16:33:54.442Z,100724.63
2022-12-12T16:35:58.982Z,100723.25
2022-12-12T16:38:02.483Z,100719.59
2022-12-12T16:40:05.144Z,100720.41
2022-12-12T16:42:12.217Z,100725.16
2022-12-12T16:44:14.415Z,100725.28
2022-12-12T16:46:21.549Z,100722.88
2022-12-12T16:48:26.132Z,100716.97
2022-12-12T16:50:28.527Z,100727.56
2022-12-12T16:52:30.865Z,100724.28
2022-12-12T16:54:32.968Z,100730.56
2022-12-12T16:56:35.093Z,100719.41
2022-12-12T16:58:37.767Z,100718.63
2022-12-12T17:00:40.271Z,100724.75
2022-12-12T17:02:42.401Z,100723.13
2022-12-12T17:04:44.504Z,100718.47
2022-12-12T17:06:46.708Z,100718.63
2022-12-12T17:08:48.866Z,100725.63
2022-12-12T17:11:09.555Z,100725.91
2022-12-12T17:13:17.225Z,100718.13
2022-12-12T17:15:24.839Z,100724.66
2022-12-12T17:17:26.901Z,100721.47
2022-12-12T17:19:29.005Z,100725.47
2022-12-12T17:21:31.224Z,100727.63
2022-12-12T17:23:33.490Z,100721.53
2022-12-12T17:25:35.731Z,100724.28
2022-12-12T17:27:37.888Z,100725.09
2022-12-12T17:29:40.126Z,100716.13
2022-12-12T17:31:42.432Z,100716.00
2022-12-12T17:33:50.517Z,100725.00
2022-12-12T17:35:59.121Z,100731.91
2022-12-12T17:38:01.411Z,100727.16
2022-12-12T17:40:06.611Z,100732.72
2022-12-12T17:42:08.744Z,100730.16
2022-12-12T17:44:10.870Z,100731.47
2022-12-12T17:46:15.395Z,100724.78
2022-12-12T17:48:17.479Z,100729.78
2022-12-12T17:50:20.211Z,100727.69
2022-12-12T17:52:22.549Z,100729.56
2022-12-12T17:54:24.686Z,100729.28
2022-12-12T17:56:27.428Z,100738.53
2022-12-12T17:58:33.066Z,100732.25
2022-12-12T18:00:35.762Z,100731.69
2022-12-12T18:02:39.745Z,100729.38
2022-12-12T18:04:42.090Z,100735.19
2022-12-12T18:06:44.736Z,100737.88
2022-12-12T18:08:47.373Z,100740.09
2022-12-12T18:10:49.480Z,100734.72
2022-12-12T18:12:52.203Z,100729.56
2022-12-12T18:14:54.363Z,100732.56
2022-12-12T18:16:56.542Z,100728.47
2022-12-12T18:18:59.477Z,100730.19
2022-12-12T18:21:04.923Z,100730.56
2022-12-12T18:23:07.062Z,100728.13
2022-12-12T18:25:09.893Z,100732.16
2022-12-12T18:27:12.417Z,100732.91
2022-12-12T18:29:15.220Z,100740.69
2022-12-12T18:31:17.861Z,100746.63
2022-12-12T18:33:20.655Z,100743.75
2022-12-12T18:35:22.881Z,100741.16
2022-12-12T18:37:25.392Z,100748.91
2022-12-12T18:39:27.820Z,100746.22
2022-12-12T18:41:31.945Z,100740.28
2022-12-12T18:43:35.998Z,100748.47
2022-12-12T18:45:38.564Z,100747.66
2022-12-12T18:47:41.139Z,100746.22
2022-12-12T18:49:44.451Z,100750.84
2022-12-12T18:51:47.115Z,100754.50
2022-12-12T18:53:50.101Z,100737.19
2022-12-12T18:55:52.292Z,100741.91
2022-12-12T18:57:54.504Z,100751.78
2022-12-12T18:59:56.991Z,100747.81
2022-12-12T19:01:59.526Z,100754.72
2022-12-12T19:04:10.679Z,100744.47
2022-12-12T19:06:18.077Z,100753.28
2022-12-12T19:08:23.577Z,100748.78
2022-12-12T19:10:25.797Z,100753.59
2022-12-12T19:12:28.372Z,100754.81
2022-12-12T19:15:15.149Z,100759.81
2022-12-12T19:16:53.518Z,100754.84
2022-12-12T19:18:55.816Z,100764.63
2022-12-12T19:21:03.262Z,100758.28
2022-12-12T19:23:05.706Z,100759.16
2022-12-12T19:25:10.349Z,100755.75
2022-12-12T19:27:13.138Z,100757.81
2022-12-12T19:29:18.938Z,100766.56
2022-12-12T19:31:21.206Z,100766.88
2022-12-12T19:33:23.650Z,100759.53
2022-12-12T19:35:26.109Z,100758.94
2022-12-12T19:37:28.259Z,100755.91
2022-12-12T19:39:30.872Z,100754.31
2022-12-12T19:41:33.253Z,100760.03
2022-12-12T19:43:35.957Z,100758.94
2022-12-12T19:45:38.041Z,100761.78
2022-12-12T19:47:40.051Z,100761.28
2022-12-12T19:49:42.156Z,100764.16
2022-12-12T19:51:45.959Z,100763.88
2022-12-12T19:53:51.339Z,100765.75
2022-12-12T19:55:53.463Z,100762.91
2022-12-12T19:57:55.611Z,100770.13
2022-12-12T19:59:57.720Z,100768.78
2022-12-12T20:02:01.310Z,100772.97
2022-12-12T20:04:08.336Z,100781.00
2022-12-12T20:06:11.875Z,100771.91
2022-12-12T20:08:13.989Z,100778.72
2022-12-12T20:10:16.451Z,100780.94
2022-12-12T20:12:18.719Z,100776.97
2022-12-12T20:14:25.515Z,100782.13
2022-12-12T20:16:29.015Z,100782.50
2022-12-12T20:18:31.063Z,100786.25
2022-12-12T20:20:33.078Z,100778.09
2022-12-12T20:22:35.133Z,100786.50
2022-12-12T20:24:38.044Z,100795.78
2022-12-12T20:26:40.864Z,100801.84
2022-12-12T20:28:43.318Z,100802.00
2022-12-12T20:30:47.666Z,100798.81
2022-12-12T20:32:52.773Z,100793.50
2022-12-12T20:34:55.050Z,100779.88
2022-12-12T20:36:57.458Z,100791.91
2022-12-12T20:39:01.699Z,100796.66
2022-12-12T20:41:12.488Z,100803.66
2022-12-12T20:43:14.275Z,100796.50
2022-12-12T20:45:16.605Z,100797.56
2022-12-12T20:47:20.871Z,100791.03
2022-12-12T20:49:24.200Z,100787.28
2022-12-12T20:51:54.746Z,100788.38
2022-12-12T20:53:52.967Z,100783.16
2022-12-12T20:55:55.095Z,100792.91
2022-12-12T20:57:57.161Z,100793.19
2022-12-12T20:59:59.298Z,100790.72
2022-12-12T21:02:02.568Z,100789.91
2022-12-12T21:04:09.205Z,100796.75
2022-12-12T21:06:15.742Z,100792.06
2022-12-12T21:08:18.883Z,100787.38
2022-12-12T21:10:21.072Z,100787.84
2022-12-12T21:12:23.235Z,100785.69
2022-12-12T21:14:28.199Z,100789.44
2022-12-12T21:16:33.437Z,100793.31
2022-12-12T21:18:36.190Z,100782.09
2022-12-12T21:20:38.940Z,100787.63
2022-12-12T21:22:40.999Z,100782.84
2022-12-12T21:24:43.111Z,100786.72
2022-12-12T21:26:46.164Z,100791.81
2022-12-12T21:28:49.175Z,100785.31
2022-12-12T21:30:51.180Z,100790.59
2022-12-12T21:32:53.272Z,100787.78
2022-12-12T21:34:55.313Z,100789.59
2022-12-12T21:36:57.592Z,100791.59
2022-12-12T21:39:01.323Z,100785.44
2022-12-12T21:41:08.296Z,100784.44
2022-12-12T21:43:10.399Z,100780.28
2022-12-12T21:45:15.700Z,100789.84
2022-12-12T21:47:17.930Z,100788.09
2022-12-12T21:49:20.172Z,100794.78
2022-12-12T21:51:22.249Z,100793.31
2022-12-12T21:53:27.329Z,100786.56
2022-12-12T21:55:29.421Z,100788.91
2022-12-12T21:57:31.534Z,100780.47
2022-12-12T21:59:37.473Z,100766.63
2022-12-12T22:01:40.100Z,100775.69
2022-12-12T22:03:43.256Z,100784.19
2022-12-12T22:05:45.272Z,100782.44
2022-12-12T22:07:47.755Z,100773.47
2022-12-12T22:09:57.214Z,100772.59
2022-12-12T22:12:11.933Z,100767.50
2022-12-12T22:14:21.874Z,100766.97
2022-12-12T22:16:24.132Z,100772.03
2022-12-12T22:18:26.433Z,100773.78
2022-12-12T22:20:28.455Z,100774.25
2022-12-12T22:22:30.765Z,100776.09
2022-12-12T22:24:32.977Z,100774.91
2022-12-12T22:26:38.746Z,100776.97
2022-12-12T22:28:41.188Z,100792.91
2022-12-12T22:30:43.342Z,100798.19
2022-12-12T22:32:45.390Z,100791.56
2022-12-12T22:34:48.740Z,100796.25
2022-12-12T22:36:51.766Z,100799.13
2022-12-12T22:38:54.764Z,100795.72
2022-12-12T22:40:57.139Z,100813.97
2022-12-12T22:42:59.871Z,100807.84
2022-12-12T22:45:01.898Z,100805.09
2022-12-12T22:47:04.182Z,100802.63
2022-12-12T22:49:06.494Z,100806.75
2022-12-12T22:51:12.922Z,100803.16
2022-12-12T22:53:15.869Z,100811.09
2022-12-12T22:55:17.850Z,100811.97
2022-12-12T22:57:19.968Z,100805.09
2022-12-12T22:59:21.985Z,100801.97
2022-12-12T23:01:25.172Z,100803.72
2022-12-12T23:03:27.249Z,100800.94
2022-12-12T23:05:29.273Z,100801.28
2022-12-12T23:07:31.389Z,100799.75
2022-12-12T23:09:33.416Z,100800.78
2022-12-12T23:11:36.797Z,100802.78
2022-12-12T23:13:39.854Z,100802.00
2022-12-12T23:15:42.580Z,100802.00
2022-12-12T23:17:44.581Z,100803.41
2022-12-12T23:19:46.717Z,100799.44
2022-12-12T23:21:48.782Z,100796.44
2022-12-12T23:23:51.675Z,100806.97
2022-12-12T23:25:53.671Z,100801.69
2022-12-12T23:27:55.692Z,100805.88
2022-12-12T23:29:57.644Z,100804.16
2022-12-12T23:32:03.212Z,100806.13
2022-12-12T23:34:08.334Z,100797.88
2022-12-12T23:36:13.099Z,100802.31
2022-12-12T23:38:15.656Z,100782.09
2022-12-12T23:40:17.809Z,100785.38
2022-12-12T23:42:19.754Z,100791.34
2022-12-12T23:44:23.091Z,100787.44
2022-12-12T23:46:29.235Z,100797.84
2022-12-12T23:48:32.214Z,100793.69
2022-12-12T23:50:34.345Z,100798.72
2022-12-12T23:52:36.366Z,100795.28
2022-12-12T23:54:38.572Z,100786.31
2022-12-12T23:56:40.858Z,100788.25
2022-12-12T23:58:42.798Z,100784.19
